Time;durP1;ratioP1;P1;durP2;ratioP2;P2;SDS_P1;SDS_P2;PMS_P1;PMS_P2;Temp;Humidity;BMP_temperature;BMP_pressure;BME280_temperature;BME280_humidity;BME280_pressure;Samples;Min_cycle;Max_cycle;Signal;HPM_P1;HPM_P2
2023/06/26 00:00:53;;;;;;;6.82;4.50;;;16.00;98.60;;;;;;5116687;27;20039;-74
2023/06/26 00:03:19;;;;;;;8.38;5.88;;;16.00;99.00;;;;;;5135312;27;20358;-73
2023/06/26 00:05:44;;;;;;;7.95;5.45;;;16.00;99.50;;;;;;5134878;27;20092;-73
2023/06/26 00:08:10;;;;;;;7.18;4.95;;;15.90;99.80;;;;;;5134893;27;20392;-73
2023/06/26 00:10:35;;;;;;;6.90;4.90;;;15.90;99.90;;;;;;5116593;27;20473;-73
2023/06/26 00:13:02;;;;;;;6.38;4.90;;;15.90;99.90;;;;;;5134487;27;20027;-74
2023/06/26 00:15:31;;;;;;;6.95;4.88;;;15.90;99.90;;;;;;5134806;27;20046;-73
2023/06/26 00:17:57;;;;;;;7.78;5.18;;;15.90;99.90;;;;;;5134808;27;20098;-74
2023/06/26 00:20:24;;;;;;;6.82;4.85;;;15.80;99.90;;;;;;5134722;27;20019;-76
2023/06/26 00:22:50;;;;;;;8.63;5.72;;;15.80;99.90;;;;;;5135018;27;20011;-76
2023/06/26 00:25:16;;;;;;;9.57;6.35;;;15.80;99.90;;;;;;5134615;27;20052;-76
2023/06/26 00:27:41;;;;;;;8.82;6.35;;;15.80;99.90;;;;;;5134701;27;20028;-76
2023/06/26 00:30:08;;;;;;;9.35;5.85;;;15.70;99.90;;;;;;5134627;27;20023;-76
2023/06/26 00:32:34;;;;;;;9.10;5.45;;;15.70;99.90;;;;;;5134474;27;20015;-76
2023/06/26 00:34:59;;;;;;;6.80;4.93;;;15.50;99.90;;;;;;5134617;27;20540;-73
2023/06/26 00:37:25;;;;;;;8.52;5.25;;;15.40;99.90;;;;;;5134472;27;20031;-73
2023/06/26 00:39:51;;;;;;;7.53;5.10;;;15.40;99.90;;;;;;5134436;27;20392;-73
2023/06/26 00:42:16;;;;;;;7.13;5.20;;;15.30;99.90;;;;;;5134738;27;20153;-73
2023/06/26 00:44:42;;;;;;;8.00;4.93;;;15.20;99.90;;;;;;5134475;27;20037;-73
2023/06/26 00:47:09;;;;;;;7.18;4.72;;;15.20;99.90;;;;;;5134795;27;20038;-73
2023/06/26 00:49:34;;;;;;;7.47;5.28;;;15.20;99.90;;;;;;5134955;27;20020;-73
2023/06/26 00:52:01;;;;;;;7.45;5.28;;;15.20;99.90;;;;;;5115974;28;20023;-73
2023/06/26 00:54:26;;;;;;;7.68;4.63;;;15.20;99.90;;;;;;5134242;28;20026;-74
2023/06/26 00:56:52;;;;;;;8.25;5.05;;;15.20;99.90;;;;;;5134552;28;20376;-74
2023/06/26 00:59:18;;;;;;;6.10;4.22;;;15.20;99.90;;;;;;5134301;28;20101;-73
2023/06/26 01:01:43;;;;;;;8.63;5.78;;;15.20;99.90;;;;;;5134206;28;20026;-73
2023/06/26 01:04:17;;;;;;;8.35;4.95;;;15.20;99.90;;;;;;5134134;28;20456;-73
2023/06/26 01:06:48;;;;;;;7.53;5.15;;;15.20;99.90;;;;;;5134475;28;20020;-75
2023/06/26 01:09:17;;;;;;;6.90;4.97;;;15.10;99.90;;;;;;5134428;28;20035;-76
2023/06/26 01:11:43;;;;;;;8.70;5.03;;;15.10;99.90;;;;;;5134248;28;20393;-76
2023/06/26 01:14:09;;;;;;;8.90;5.20;;;15.00;99.90;;;;;;5115557;28;20042;-76
2023/06/26 01:16:35;;;;;;;7.82;5.32;;;15.00;99.90;;;;;;5134094;28;20106;-76
2023/06/26 01:19:01;;;;;;;7.40;4.82;;;15.00;99.90;;;;;;5134065;28;20426;-76
2023/06/26 01:21:32;;;;;;;7.78;5.45;;;14.90;99.90;;;;;;5134079;28;20055;-76
2023/06/26 01:24:20;;;;;;;8.05;5.18;;;14.90;99.90;;;;;;5135144;27;20035;-76
2023/06/26 01:26:49;;;;;;;7.78;5.38;;;14.90;99.90;;;;;;5138648;27;20035;-76
2023/06/26 01:29:15;;;;;;;7.93;5.28;;;14.90;99.90;;;;;;5137932;27;20032;-76
2023/06/26 01:31:42;;;;;;;9.80;5.90;;;14.80;99.90;;;;;;5138043;27;20033;-75
2023/06/26 01:34:08;;;;;;;7.55;5.30;;;14.80;99.90;;;;;;5102557;27;20046;-76
2023/06/26 01:36:33;;;;;;;7.22;5.20;;;14.80;99.90;;;;;;5138090;27;20540;-76
2023/06/26 01:38:59;;;;;;;8.02;5.38;;;14.70;99.90;;;;;;5137875;27;20034;-76
2023/06/26 01:41:25;;;;;;;8.35;5.45;;;14.70;99.90;;;;;;5137804;27;20072;-75
2023/06/26 01:44:06;;;;;;;9.07;5.55;;;14.60;99.90;;;;;;5137650;27;20087;-75
2023/06/26 01:46:34;;;;;;;7.85;5.60;;;14.60;99.90;;;;;;5137772;27;20429;-76
2023/06/26 01:49:14;;;;;;;8.25;5.07;;;14.60;99.90;;;;;;5137532;27;20026;-75
2023/06/26 01:51:47;;;;;;;9.55;4.97;;;14.60;99.90;;;;;;5137684;27;20023;-76
2023/06/26 01:54:19;;;;;;;7.05;4.97;;;14.50;99.90;;;;;;5137473;27;20019;-76
2023/06/26 01:56:49;;;;;;;9.27;6.13;;;14.50;99.90;;;;;;5137542;27;20023;-76
2023/06/26 01:59:16;;;;;;;7.93;6.07;;;14.40;99.90;;;;;;5137445;27;20019;-76
2023/06/26 02:01:42;;;;;;;8.98;6.55;;;14.40;99.90;;;;;;5137333;27;20035;-76
2023/06/26 02:04:08;;;;;;;12.05;6.75;;;14.30;99.90;;;;;;5137513;27;20027;-76
2023/06/26 02:06:33;;;;;;;8.20;5.82;;;14.30;99.90;;;;;;5137581;27;20030;-76
2023/06/26 02:09:00;;;;;;;7.80;5.22;;;14.30;99.90;;;;;;5118684;27;20031;-76
2023/06/26 02:11:26;;;;;;;8.88;5.40;;;14.30;99.90;;;;;;5137225;27;20022;-76
2023/06/26 02:13:51;;;;;;;9.00;5.28;;;14.20;99.90;;;;;;5137014;27;20031;-76
2023/06/26 02:16:17;;;;;;;7.72;5.18;;;14.10;99.90;;;;;;5137416;27;20039;-75
2023/06/26 02:18:42;;;;;;;7.40;5.50;;;14.10;99.90;;;;;;5137094;27;20393;-76
2023/06/26 02:21:09;;;;;;;7.20;5.35;;;14.10;99.90;;;;;;5137111;27;20447;-76
2023/06/26 02:23:35;;;;;;;8.52;5.38;;;14.10;99.90;;;;;;5138665;27;20027;-76
2023/06/26 02:26:01;;;;;;;10.05;6.15;;;14.10;99.90;;;;;;5138659;27;20023;-76
2023/06/26 02:28:26;;;;;;;7.38;5.18;;;14.00;99.90;;;;;;5120016;27;20161;-75
2023/06/26 02:30:52;;;;;;;8.05;5.15;;;13.90;99.90;;;;;;5138375;27;20076;-75
2023/06/26 02:33:18;;;;;;;8.63;5.32;;;13.90;99.90;;;;;;5119476;27;20023;-76
2023/06/26 02:35:43;;;;;;;8.30;5.40;;;13.90;99.90;;;;;;5119337;27;20039;-76
2023/06/26 02:38:09;;;;;;;7.43;5.28;;;13.80;99.90;;;;;;5137606;27;20031;-76
2023/06/26 02:40:35;;;;;;;9.07;5.80;;;13.80;99.90;;;;;;5137259;27;20027;-75
2023/06/26 02:43:00;;;;;;;9.35;5.85;;;13.60;99.90;;;;;;5137100;27;20027;-76
2023/06/26 02:45:26;;;;;;;9.38;6.15;;;13.50;99.90;;;;;;5136504;27;20023;-75
2023/06/26 02:47:51;;;;;;;8.77;6.55;;;13.50;99.90;;;;;;5136412;27;20106;-76
2023/06/26 02:50:17;;;;;;;9.43;6.43;;;13.50;99.90;;;;;;5136270;27;20051;-75
2023/06/26 02:52:43;;;;;;;11.25;5.82;;;13.50;99.90;;;;;;5136497;27;20027;-75
2023/06/26 02:55:08;;;;;;;8.15;6.10;;;13.50;99.90;;;;;;5136502;27;20025;-76
2023/06/26 02:57:34;;;;;;;8.55;5.47;;;13.50;99.90;;;;;;5136353;27;20054;-76
2023/06/26 03:00:00;;;;;;;10.52;5.47;;;13.50;99.90;;;;;;5117966;27;20085;-75
2023/06/26 03:02:25;;;;;;;8.27;5.20;;;13.50;99.90;;;;;;5136218;27;20504;-76
2023/06/26 03:04:52;;;;;;;7.60;5.10;;;13.50;99.90;;;;;;5136204;27;20046;-76
2023/06/26 03:07:18;;;;;;;9.55;5.95;;;13.50;99.90;;;;;;5136408;27;20038;-76
2023/06/26 03:09:44;;;;;;;9.43;5.65;;;13.50;99.90;;;;;;5136135;27;20023;-75
2023/06/26 03:12:09;;;;;;;8.35;5.68;;;13.50;99.90;;;;;;5117932;27;20047;-73
2023/06/26 03:14:35;;;;;;;7.65;5.40;;;13.40;99.90;;;;;;5135810;27;20054;-74
2023/06/26 03:17:03;;;;;;;8.20;5.50;;;13.40;99.90;;;;;;5136265;27;20430;-76
2023/06/26 03:19:29;;;;;;;7.72;5.50;;;13.40;99.90;;;;;;5135892;27;20022;-76
2023/06/26 03:21:55;;;;;;;7.68;5.35;;;13.30;99.90;;;;;;5136326;27;20028;-76
2023/06/26 03:24:20;;;;;;;7.80;5.13;;;13.30;99.90;;;;;;5135648;27;20125;-76
2023/06/26 03:26:46;;;;;;;8.32;5.70;;;13.30;99.90;;;;;;5135692;27;20028;-76
2023/06/26 03:29:12;;;;;;;7.75;4.60;;;13.30;99.90;;;;;;5135557;27;20019;-75
2023/06/26 03:31:38;;;;;;;8.32;5.32;;;13.20;99.90;;;;;;5135653;27;20079;-75
2023/06/26 03:34:04;;;;;;;8.98;6.10;;;13.20;99.90;;;;;;5135618;27;20019;-75
2023/06/26 03:36:29;;;;;;;9.88;5.60;;;13.10;99.90;;;;;;5135554;27;20027;-75
2023/06/26 03:38:56;;;;;;;8.80;5.43;;;13.10;99.90;;;;;;5135542;27;20032;-76
2023/06/26 03:41:23;;;;;;;8.73;5.40;;;13.10;99.90;;;;;;5135521;27;20034;-75
2023/06/26 03:43:49;;;;;;;8.80;5.28;;;13.00;99.90;;;;;;5116871;27;20031;-76
2023/06/26 03:46:15;;;;;;;7.68;5.20;;;13.00;99.90;;;;;;5135083;27;20034;-76
2023/06/26 03:48:40;;;;;;;8.93;6.15;;;13.00;99.90;;;;;;5116758;27;20031;-76
2023/06/26 03:51:07;;;;;;;8.95;5.72;;;13.00;99.90;;;;;;5135645;27;20023;-75
2023/06/26 03:53:33;;;;;;;10.70;6.57;;;13.00;99.90;;;;;;5135502;27;20016;-75
2023/06/26 03:55:59;;;;;;;9.70;6.13;;;13.00;99.90;;;;;;5135256;27;20016;-75
2023/06/26 03:58:25;;;;;;;11.20;6.68;;;13.00;99.90;;;;;;5135092;27;20025;-75
2023/06/26 04:00:51;;;;;;;7.95;5.60;;;13.00;99.90;;;;;;5135432;27;20027;-76
2023/06/26 04:03:17;;;;;;;8.35;5.70;;;13.00;99.90;;;;;;5135138;27;20057;-75
2023/06/26 04:05:42;;;;;;;10.13;5.80;;;13.00;99.90;;;;;;5134925;27;20023;-75
2023/06/26 04:08:08;;;;;;;9.30;6.50;;;13.10;99.90;;;;;;5134881;27;20388;-76
2023/06/26 04:10:36;;;;;;;9.15;5.90;;;13.10;99.90;;;;;;5134941;27;20144;-75
2023/06/26 04:13:01;;;;;;;9.02;6.35;;;13.10;99.90;;;;;;5134737;27;20067;-76
2023/06/26 04:15:27;;;;;;;9.13;5.60;;;13.10;99.90;;;;;;5134809;27;20035;-75
2023/06/26 04:17:53;;;;;;;11.57;6.30;;;13.10;99.90;;;;;;5135113;27;20027;-74
2023/06/26 04:20:19;;;;;;;7.97;5.57;;;13.00;99.90;;;;;;5135338;27;20120;-76
2023/06/26 04:22:44;;;;;;;8.95;6.15;;;13.10;99.90;;;;;;5134636;27;20477;-75
2023/06/26 04:25:11;;;;;;;8.77;5.70;;;13.10;99.90;;;;;;5134672;27;20103;-76
2023/06/26 04:27:37;;;;;;;10.27;5.97;;;13.00;99.90;;;;;;5116566;27;20046;-75
2023/06/26 04:30:04;;;;;;;9.35;6.07;;;13.10;99.90;;;;;;5135095;27;20440;-75
2023/06/26 04:32:30;;;;;;;9.00;5.72;;;13.10;99.90;;;;;;5134658;27;20174;-76
2023/06/26 04:34:56;;;;;;;9.88;5.93;;;13.10;99.90;;;;;;5134398;27;20028;-76
2023/06/26 04:37:22;;;;;;;9.35;6.20;;;13.10;99.90;;;;;;5134824;27;20028;-75
2023/06/26 04:39:48;;;;;;;8.65;5.95;;;13.10;99.90;;;;;;5134494;27;20439;-76
2023/06/26 04:42:14;;;;;;;9.95;5.82;;;13.10;99.90;;;;;;5134346;27;20036;-75
2023/06/26 04:44:41;;;;;;;9.43;5.78;;;13.20;99.90;;;;;;5134434;27;20027;-76
2023/06/26 04:47:07;;;;;;;10.30;6.43;;;13.20;99.90;;;;;;5134335;27;20102;-76
2023/06/26 04:49:33;;;;;;;9.05;6.18;;;13.20;99.90;;;;;;5121579;27;20485;-76
2023/06/26 04:52:00;;;;;;;9.88;6.53;;;13.20;99.90;;;;;;5113804;28;20024;-75
2023/06/26 04:54:26;;;;;;;9.98;6.65;;;13.20;99.90;;;;;;5113332;28;20032;-75
2023/06/26 04:56:52;;;;;;;10.35;6.43;;;13.30;99.90;;;;;;5114566;28;20497;-76
2023/06/26 04:59:18;;;;;;;9.93;7.13;;;13.30;99.90;;;;;;5115342;28;20056;-76
2023/06/26 05:01:48;;;;;;;11.10;6.85;;;13.30;99.90;;;;;;5118067;28;20028;-76
2023/06/26 05:04:15;;;;;;;11.55;6.63;;;13.30;99.90;;;;;;5118350;28;20023;-75
2023/06/26 05:06:41;;;;;;;9.68;6.53;;;13.40;99.90;;;;;;5117884;28;20160;-75
2023/06/26 05:09:07;;;;;;;9.30;6.65;;;13.40;99.90;;;;;;5117818;28;20536;-75
2023/06/26 05:11:33;;;;;;;10.38;7.22;;;13.40;99.90;;;;;;5118069;28;20024;-75
2023/06/26 05:13:58;;;;;;;12.93;8.07;;;13.50;99.90;;;;;;5117635;28;20049;-75
2023/06/26 05:16:24;;;;;;;13.07;8.73;;;13.50;99.90;;;;;;5117984;28;20032;-75
2023/06/26 05:18:50;;;;;;;13.52;8.20;;;13.50;99.90;;;;;;5117733;28;20032;-75
2023/06/26 05:21:16;;;;;;;12.27;8.18;;;13.60;99.90;;;;;;5117710;28;20100;-75
2023/06/26 05:23:44;;;;;;;12.00;7.72;;;13.60;99.90;;;;;;5117496;28;20085;-75
2023/06/26 05:26:10;;;;;;;11.80;7.88;;;13.60;99.90;;;;;;5117522;28;20023;-75
2023/06/26 05:28:37;;;;;;;10.70;7.60;;;13.60;99.90;;;;;;5082416;28;20205;-75
2023/06/26 05:31:04;;;;;;;11.07;7.03;;;13.60;99.90;;;;;;5117529;28;20457;-75
2023/06/26 05:33:30;;;;;;;10.70;7.28;;;13.70;99.90;;;;;;5117966;28;20030;-75
2023/06/26 05:35:58;;;;;;;10.68;7.53;;;13.70;99.90;;;;;;5117389;28;20121;-75
2023/06/26 05:38:24;;;;;;;10.60;7.32;;;13.80;99.90;;;;;;5117350;28;20027;-75
2023/06/26 05:40:50;;;;;;;14.15;8.25;;;13.90;99.90;;;;;;5117564;28;20533;-75
2023/06/26 05:43:16;;;;;;;13.25;9.07;;;14.00;99.90;;;;;;5117437;28;20100;-75
2023/06/26 05:45:42;;;;;;;13.20;8.55;;;14.10;99.90;;;;;;5117090;28;20065;-75
2023/06/26 05:48:07;;;;;;;12.02;8.75;;;14.20;99.90;;;;;;5117012;28;20071;-74
2023/06/26 05:50:34;;;;;;;14.10;8.98;;;14.30;99.90;;;;;;5117019;28;20027;-74
2023/06/26 05:53:03;;;;;;;14.57;8.80;;;14.40;99.90;;;;;;5117034;28;20035;-75
2023/06/26 05:55:28;;;;;;;11.23;8.10;;;14.40;99.90;;;;;;5118028;28;20023;-74
2023/06/26 05:57:58;;;;;;;11.05;7.80;;;14.50;99.90;;;;;;5117218;28;20030;-75
2023/06/26 06:00:26;;;;;;;12.23;7.65;;;14.60;99.90;;;;;;5117814;28;20484;-74
2023/06/26 06:02:54;;;;;;;13.85;9.90;;;14.70;99.90;;;;;;5116899;28;20038;-75
2023/06/26 06:05:20;;;;;;;13.00;9.45;;;14.80;99.90;;;;;;5116986;28;20057;-77
2023/06/26 06:07:46;;;;;;;16.80;9.80;;;14.90;99.90;;;;;;5116925;28;20067;-76
2023/06/26 06:10:12;;;;;;;13.35;9.65;;;15.00;99.90;;;;;;5116238;28;20034;-73
2023/06/26 06:12:38;;;;;;;18.38;11.70;;;15.00;99.90;;;;;;5098398;28;20115;-74
2023/06/26 06:15:04;;;;;;;15.50;10.85;;;15.10;99.90;;;;;;5116512;28;20019;-74
2023/06/26 06:17:30;;;;;;;13.77;9.43;;;15.20;99.90;;;;;;5116851;28;20431;-74
2023/06/26 06:19:56;;;;;;;15.45;9.77;;;15.30;99.90;;;;;;5116945;28;20023;-73
2023/06/26 06:22:21;;;;;;;14.07;9.88;;;15.40;99.90;;;;;;5098586;28;20469;-74
2023/06/26 06:24:50;;;;;;;12.05;8.85;;;15.40;99.90;;;;;;5116301;28;20032;-74
2023/06/26 06:27:15;;;;;;;14.38;9.55;;;15.60;99.90;;;;;;5116319;28;20493;-74
2023/06/26 06:29:41;;;;;;;14.48;10.20;;;15.70;99.90;;;;;;5116334;28;20036;-73
2023/06/26 06:32:07;;;;;;;15.60;10.32;;;15.80;99.90;;;;;;5116424;28;20019;-73
2023/06/26 06:34:33;;;;;;;12.90;8.85;;;15.90;99.90;;;;;;5116837;28;20024;-73
2023/06/26 06:36:58;;;;;;;14.75;10.57;;;16.10;99.90;;;;;;5116487;28;20027;-74
2023/06/26 06:39:24;;;;;;;16.48;10.27;;;16.20;99.90;;;;;;5116213;28;20442;-73
2023/06/26 06:41:50;;;;;;;14.57;9.82;;;16.20;99.90;;;;;;5116107;28;20051;-73
2023/06/26 06:44:15;;;;;;;15.55;10.02;;;16.30;99.90;;;;;;5116008;28;20023;-73
2023/06/26 06:46:41;;;;;;;13.77;9.20;;;16.40;99.90;;;;;;5116157;28;20051;-73
2023/06/26 06:49:08;;;;;;;16.13;9.48;;;16.50;99.90;;;;;;5116175;28;20063;-74
2023/06/26 06:51:34;;;;;;;12.50;8.43;;;16.70;99.90;;;;;;5115952;28;20028;-73
2023/06/26 06:54:00;;;;;;;14.40;9.65;;;16.80;99.90;;;;;;5115811;28;20044;-73
2023/06/26 06:56:26;;;;;;;16.58;9.75;;;16.90;99.90;;;;;;5115984;28;20123;-73
2023/06/26 06:58:52;;;;;;;12.90;9.35;;;17.00;99.90;;;;;;5115667;28;20512;-73
2023/06/26 07:01:17;;;;;;;12.85;8.60;;;17.10;99.90;;;;;;5116030;28;20036;-73
2023/06/26 07:03:43;;;;;;;16.20;9.65;;;17.30;99.90;;;;;;5114382;28;20100;-73
2023/06/26 07:06:09;;;;;;;12.00;8.73;;;17.40;99.90;;;;;;5097812;28;20093;-71
2023/06/26 07:08:35;;;;;;;13.32;9.65;;;17.60;99.90;;;;;;5115500;28;20034;-71
2023/06/26 07:11:01;;;;;;;12.20;8.43;;;17.70;99.90;;;;;;5115498;28;20088;-71
2023/06/26 07:13:27;;;;;;;12.00;8.60;;;17.90;99.90;;;;;;5115313;28;20031;-71
2023/06/26 07:15:52;;;;;;;12.57;7.72;;;18.00;99.90;;;;;;5115660;28;20023;-71
2023/06/26 07:18:18;;;;;;;14.88;9.60;;;18.20;99.90;;;;;;5115282;28;20039;-71
2023/06/26 07:20:44;;;;;;;13.80;8.52;;;18.30;99.90;;;;;;5115288;28;20107;-71
2023/06/26 07:23:10;;;;;;;12.73;7.95;;;18.40;99.90;;;;;;5114762;28;20431;-71
2023/06/26 07:25:36;;;;;;;13.35;8.18;;;18.60;99.90;;;;;;5115261;28;20031;-71
2023/06/26 07:28:02;;;;;;;11.60;8.48;;;18.80;99.90;;;;;;5115150;28;20032;-71
2023/06/26 07:30:27;;;;;;;11.02;8.30;;;18.90;99.90;;;;;;5115102;28;20097;-71
2023/06/26 07:32:53;;;;;;;11.65;8.20;;;19.10;99.90;;;;;;5115107;28;20022;-71
2023/06/26 07:35:19;;;;;;;13.85;9.32;;;19.30;99.90;;;;;;5115520;28;20522;-71
2023/06/26 07:37:45;;;;;;;12.00;8.10;;;19.40;99.90;;;;;;5115023;28;20024;-71
2023/06/26 07:40:11;;;;;;;12.32;8.23;;;19.60;99.90;;;;;;5114997;28;20031;-71
2023/06/26 07:42:40;;;;;;;11.50;8.15;;;19.80;99.90;;;;;;5114897;28;20080;-73
2023/06/26 07:45:10;;;;;;;9.93;6.85;;;20.00;99.90;;;;;;5114893;28;20032;-73
2023/06/26 07:47:37;;;;;;;11.17;7.70;;;20.10;99.90;;;;;;5115079;28;20030;-73
2023/06/26 07:50:02;;;;;;;11.00;7.53;;;20.30;99.90;;;;;;5115023;28;20267;-73
2023/06/26 07:52:30;;;;;;;10.80;7.32;;;20.40;99.90;;;;;;5114725;28;20032;-73
2023/06/26 07:54:56;;;;;;;11.23;7.78;;;20.60;99.90;;;;;;5114833;28;20442;-73
2023/06/26 07:57:22;;;;;;;12.07;7.35;;;20.70;99.90;;;;;;5096648;28;20028;-73
2023/06/26 07:59:48;;;;;;;9.98;7.63;;;20.90;99.90;;;;;;5114513;28;20385;-73
2023/06/26 08:02:14;;;;;;;9.43;7.07;;;21.10;99.90;;;;;;5114503;28;20028;-73
2023/06/26 08:04:39;;;;;;;10.77;7.20;;;21.20;99.90;;;;;;5114292;28;20020;-73
2023/06/26 08:07:05;;;;;;;10.40;7.38;;;21.30;99.90;;;;;;5114489;28;20448;-73
2023/06/26 08:09:32;;;;;;;10.30;7.40;;;21.50;99.90;;;;;;5114164;28;20027;-73
2023/06/26 08:11:57;;;;;;;10.52;7.35;;;21.60;99.70;;;;;;5114413;28;20019;-73
2023/06/26 08:14:24;;;;;;;10.40;7.32;;;21.80;98.80;;;;;;5095860;28;20084;-73
2023/06/26 08:16:50;;;;;;;9.43;7.28;;;21.90;97.80;;;;;;5114165;28;20024;-73
2023/06/26 08:19:17;;;;;;;10.38;7.32;;;22.00;98.00;;;;;;5113941;28;20047;-73
2023/06/26 08:21:44;;;;;;;12.85;7.75;;;22.10;98.40;;;;;;5114017;28;20020;-73
2023/06/26 08:24:10;;;;;;;11.02;8.15;;;22.20;98.70;;;;;;5114153;28;20424;-73
2023/06/26 08:26:36;;;;;;;10.43;7.57;;;22.40;98.20;;;;;;5114083;28;20443;-73
2023/06/26 08:29:07;;;;;;;7.97;6.50;;;22.50;96.30;;;;;;5114104;28;20027;-73
2023/06/26 08:31:34;;;;;;;11.10;7.95;;;22.70;95.20;;;;;;5114220;28;20023;-73
2023/06/26 08:34:00;;;;;;;11.85;8.35;;;22.90;98.60;;;;;;5113799;28;20068;-73
2023/06/26 08:36:26;;;;;;;11.25;7.78;;;23.00;95.90;;;;;;5113943;28;20038;-73
2023/06/26 08:38:51;;;;;;;8.75;7.28;;;23.10;95.80;;;;;;5113962;28;20040;-73
2023/06/26 08:41:17;;;;;;;10.52;7.88;;;23.30;95.90;;;;;;5113962;28;20023;-73
2023/06/26 08:43:43;;;;;;;12.20;8.15;;;23.50;94.00;;;;;;5113900;28;20392;-73
2023/06/26 08:46:08;;;;;;;10.85;7.40;;;23.60;92.90;;;;;;5113882;28;20054;-73
2023/06/26 08:48:38;;;;;;;10.43;7.72;;;23.80;93.30;;;;;;5113766;28;20497;-73
2023/06/26 08:51:09;;;;;;;8.93;7.15;;;23.90;93.20;;;;;;5114126;28;20477;-73
2023/06/26 08:53:57;;;;;;;11.32;7.57;;;24.10;93.00;;;;;;5113998;28;20496;-73
2023/06/26 08:56:28;;;;;;;9.53;7.43;;;24.30;92.50;;;;;;5113762;28;20058;-73
2023/06/26 08:58:54;;;;;;;;;;;24.60;91.50;;;;;;5114428;28;19903;-73
2023/06/26 09:01:20;;;;;;;;;;;24.80;91.70;;;;;;5114692;28;19939;-73
2023/06/26 09:03:46;;;;;;;;;;;25.00;90.20;;;;;;5114110;28;19914;-73
2023/06/26 09:06:11;;;;;;;;;;;25.10;90.70;;;;;;5114649;28;19904;-72
2023/06/26 09:08:37;;;;;;;;;;;25.30;89.80;;;;;;5113992;28;19947;-73
2023/06/26 09:11:02;;;;;;;;;;;25.40;87.10;;;;;;5114079;28;19903;-73
2023/06/26 09:13:28;;;;;;;;;;;25.60;88.20;;;;;;5114107;28;20391;-73
2023/06/26 09:15:55;;;;;;;;;;;25.80;88.70;;;;;;5114422;28;19907;-73
2023/06/26 09:18:21;;;;;;;;;;;26.00;90.50;;;;;;5114631;28;19908;-73
2023/06/26 09:20:47;;;;;;;;;;;26.20;90.40;;;;;;5096063;28;20315;-73
2023/06/26 09:23:12;;;;;;;;;;;26.40;89.70;;;;;;5114456;28;19986;-74
2023/06/26 09:25:39;;;;;;;;;;;26.50;85.80;;;;;;5095821;28;19997;-74
2023/06/26 09:28:05;;;;;;;;;;;26.50;80.30;;;;;;5114005;28;20322;-74
2023/06/26 09:30:34;;;;;;;;;;;26.60;79.60;;;;;;5113832;28;19990;-74
2023/06/26 09:33:15;;;;;;;;;;;26.70;76.90;;;;;;5113964;28;19903;-74
2023/06/26 09:35:41;;;;;;;6.35;5.20;;;26.70;74.30;;;;;;5113546;28;20542;-74
2023/06/26 09:38:07;;;;;;;7.13;5.80;;;26.90;75.10;;;;;;5113403;28;20019;-74
2023/06/26 09:40:35;;;;;;;6.82;5.40;;;27.10;75.00;;;;;;5113621;28;20020;-74
2023/06/26 09:43:08;;;;;;;8.82;6.70;;;27.10;72.10;;;;;;5113675;28;20015;-74
2023/06/26 09:45:36;;;;;;;8.55;6.18;;;27.00;69.90;;;;;;5116074;28;20077;-74
2023/06/26 09:48:03;;;;;;;7.75;5.97;;;27.00;69.30;;;;;;5117409;28;20108;-74
2023/06/26 09:50:29;;;;;;;9.55;6.38;;;27.10;70.70;;;;;;5117159;28;20496;-74
2023/06/26 09:52:55;;;;;;;9.35;6.03;;;27.20;71.30;;;;;;5117270;28;20026;-74
2023/06/26 09:55:22;;;;;;;7.65;5.80;;;27.20;68.70;;;;;;5117037;28;20047;-74
2023/06/26 09:57:49;;;;;;;7.50;5.90;;;27.20;69.10;;;;;;5117316;28;20034;-74
2023/06/26 10:00:16;;;;;;;7.35;6.00;;;27.30;68.10;;;;;;5117223;28;20032;-74
2023/06/26 10:02:41;;;;;;;7.15;6.03;;;27.30;69.90;;;;;;5116898;28;20024;-74
2023/06/26 10:05:07;;;;;;;8.32;6.45;;;27.20;69.80;;;;;;5116906;28;20031;-74
2023/06/26 10:07:34;;;;;;;7.78;6.10;;;27.10;69.20;;;;;;5098501;28;20126;-74
2023/06/26 10:10:02;;;;;;;8.07;6.03;;;27.00;71.60;;;;;;5116834;28;20028;-74
2023/06/26 10:12:30;;;;;;;7.97;6.30;;;27.20;74.20;;;;;;5116779;28;20023;-74
2023/06/26 10:14:57;;;;;;;8.93;5.97;;;27.50;68.70;;;;;;5116601;28;20501;-73
2023/06/26 10:17:28;;;;;;;7.00;5.78;;;27.60;72.70;;;;;;5116640;28;20020;-74
2023/06/26 10:19:56;;;;;;;7.05;5.88;;;27.80;70.70;;;;;;5117040;28;20405;-74
2023/06/26 10:22:24;;;;;;;8.60;5.82;;;27.80;67.50;;;;;;5116562;28;20541;-74
2023/06/26 10:24:52;;;;;;;6.53;5.60;;;27.80;71.50;;;;;;5116441;28;20028;-74
2023/06/26 10:27:20;;;;;;;7.65;5.30;;;27.90;64.00;;;;;;5116456;28;20117;-74
2023/06/26 10:30:00;;;;;;;7.05;5.55;;;27.80;65.60;;;;;;5116600;28;20027;-74
2023/06/26 10:32:27;;;;;;;7.10;5.97;;;27.80;68.40;;;;;;5116746;28;20462;-74
2023/06/26 10:34:55;;;;;;;7.45;5.95;;;27.80;68.00;;;;;;5116439;28;20038;-74
2023/06/26 10:37:21;;;;;;;6.72;5.85;;;27.70;67.80;;;;;;5116238;28;20019;-74
2023/06/26 10:39:52;;;;;;;7.05;5.60;;;27.70;67.80;;;;;;5116049;28;20031;-74
2023/06/26 10:42:19;;;;;;;6.60;5.32;;;27.90;66.70;;;;;;5116037;28;20023;-74
2023/06/26 10:44:46;;;;;;;7.20;5.35;;;28.20;66.30;;;;;;5115914;28;20616;-74
2023/06/26 10:47:30;;;;;;;9.20;6.20;;;28.40;66.20;;;;;;5116114;28;20020;-74
2023/06/26 10:49:56;;;;;;;7.10;5.88;;;28.30;69.70;;;;;;5121090;27;20023;-74
2023/06/26 10:52:22;;;;;;;6.93;5.70;;;28.40;65.60;;;;;;5125476;27;20027;-74
2023/06/26 10:54:47;;;;;;;7.60;6.15;;;28.50;64.50;;;;;;5136445;27;20023;-74
2023/06/26 10:57:23;;;;;;;6.10;5.13;;;28.50;63.40;;;;;;5117767;27;20062;-74
2023/06/26 11:00:08;;;;;;;6.72;5.82;;;28.60;63.90;;;;;;5122092;27;20027;-74
2023/06/26 11:02:50;;;;;;;8.75;6.20;;;28.70;62.10;;;;;;5120623;27;20020;-74
2023/06/26 11:05:32;;;;;;;7.30;5.47;;;28.50;61.00;;;;;;5120419;27;20042;-74
2023/06/26 11:08:08;;;;;;;6.93;5.70;;;28.50;62.30;;;;;;5136230;27;20065;-74
2023/06/26 11:11:03;;;;;;;7.13;5.70;;;28.60;63.80;;;;;;5136199;27;20042;-74
2023/06/26 11:13:30;;;;;;;7.15;5.70;;;28.70;64.00;;;;;;5114156;27;20039;-74
2023/06/26 11:15:56;;;;;;;7.53;5.80;;;28.90;64.70;;;;;;5136033;27;20068;-74
2023/06/26 11:18:23;;;;;;;5.93;5.15;;;29.00;63.40;;;;;;5117529;27;20031;-74
2023/06/26 11:20:49;;;;;;;7.13;5.82;;;29.00;63.40;;;;;;5136402;27;20023;-74
2023/06/26 11:23:21;;;;;;;9.30;5.72;;;29.10;61.40;;;;;;5135838;27;20027;-74
2023/06/26 11:25:47;;;;;;;7.50;5.68;;;29.10;64.40;;;;;;5117459;27;20114;-74
2023/06/26 11:28:12;;;;;;;7.40;5.70;;;29.10;63.20;;;;;;5135719;27;20102;-74
2023/06/26 11:30:41;;;;;;;6.53;5.32;;;29.10;61.80;;;;;;5135717;27;20039;-74
2023/06/26 11:33:10;;;;;;;6.10;5.32;;;29.20;63.60;;;;;;5135969;27;20055;-74
2023/06/26 11:35:37;;;;;;;5.68;5.07;;;29.30;62.30;;;;;;5135627;27;20537;-74
2023/06/26 11:38:06;;;;;;;6.63;5.50;;;29.20;59.70;;;;;;5135866;27;20031;-74
2023/06/26 11:40:37;;;;;;;6.07;5.13;;;29.20;60.60;;;;;;5135638;27;20019;-74
2023/06/26 11:43:04;;;;;;;6.95;5.82;;;29.10;61.70;;;;;;5135507;27;20393;-73
2023/06/26 11:45:31;;;;;;;5.82;4.85;;;29.00;59.70;;;;;;5117548;27;20031;-73
2023/06/26 11:47:58;;;;;;;6.65;5.22;;;29.10;62.30;;;;;;5135644;27;20026;-74
2023/06/26 11:50:24;;;;;;;7.18;5.30;;;29.30;64.30;;;;;;5135271;27;20031;-74
2023/06/26 11:52:54;;;;;;;6.13;5.07;;;29.60;61.70;;;;;;5135242;27;20023;-74
2023/06/26 11:55:20;;;;;;;5.50;4.97;;;30.00;60.60;;;;;;5135382;27;20050;-74
2023/06/26 11:57:50;;;;;;;6.55;5.30;;;30.20;59.30;;;;;;5135134;27;20031;-74
2023/06/26 12:00:17;;;;;;;6.95;5.60;;;30.30;60.50;;;;;;5135172;27;20019;-74
2023/06/26 12:02:45;;;;;;;6.13;4.88;;;30.30;58.40;;;;;;5134987;27;20554;-74
2023/06/26 12:05:12;;;;;;;6.60;5.07;;;30.00;58.70;;;;;;5134915;27;20038;-74
2023/06/26 12:07:38;;;;;;;6.63;5.03;;;29.80;60.50;;;;;;5134833;27;20453;-74
2023/06/26 12:10:06;;;;;;;5.13;4.53;;;29.80;60.40;;;;;;5116510;27;20030;-74
2023/06/26 12:12:33;;;;;;;;;;;30.10;59.60;;;;;;5135616;27;19952;-74
2023/06/26 12:14:59;;;;;;;;;;;30.30;60.80;;;;;;5135199;27;19915;-74
2023/06/26 12:17:25;;;;;;;;;;;30.50;60.60;;;;;;5135841;27;19947;-74
2023/06/26 12:19:51;;;;;;;;;;;30.70;59.80;;;;;;5135201;27;20418;-74
2023/06/26 12:22:17;;;;;;;;;;;31.00;60.10;;;;;;5135199;27;19907;-74
2023/06/26 12:24:43;;;;;;;;;;;31.10;59.20;;;;;;5135263;27;20400;-74
2023/06/26 12:27:10;;;;;;;;;;;31.20;57.50;;;;;;5135129;27;19907;-74
2023/06/26 12:29:36;;;;;;;;;;;31.30;56.70;;;;;;5135365;27;19907;-74
2023/06/26 12:32:02;;;;;;;;;;;31.30;56.50;;;;;;5135029;27;20360;-74
2023/06/26 12:34:28;;;;;;;;;;;31.30;57.80;;;;;;5135225;27;20353;-74
2023/06/26 12:36:59;;;;;;;;;;;31.20;55.80;;;;;;5135043;27;19909;-74
2023/06/26 12:39:27;;;;;;;;;;;31.10;56.10;;;;;;5134978;27;19903;-73
2023/06/26 12:42:13;;;;;;;;;;;31.00;57.80;;;;;;5134885;27;19921;-74
2023/06/26 12:44:39;;;;;;;;;;;31.10;54.70;;;;;;5135579;27;19965;-74
2023/06/26 12:47:06;;;;;;;;;;;31.20;55.90;;;;;;5135051;27;19908;-75
2023/06/26 12:49:34;;;;;;;;;;;31.20;56.70;;;;;;5134720;27;19960;-75
2023/06/26 12:52:00;;;;;;;;;;;31.10;57.30;;;;;;5134981;27;20372;-74